sensor_id;sensor_type;location;lat;lon;timestamp;pressure;altitude;pressure_sealevel;temperature;humidity
8653;BME280;4364;52.426;9.424;2023-07-30T00:01:15;100290.84;;;17.14;98.20
8653;BME280;4364;52.426;9.424;2023-07-30T00:03:42;100292.13;;;17.17;97.90
8653;BME280;4364;52.426;9.424;2023-07-30T00:06:09;100303.56;;;17.19;98.02
8653;BME280;4364;52.426;9.424;2023-07-30T00:08:36;100305.56;;;17.10;98.63
8653;BME280;4364;52.426;9.424;2023-07-30T00:11:03;100296.22;;;17.11;98.61
8653;BME280;4364;52.426;9.424;2023-07-30T00:13:30;100301.38;;;17.03;98.85
8653;BME280;4364;52.426;9.424;2023-07-30T00:15:56;100299.13;;;17.06;99.29
8653;BME280;4364;52.426;9.424;2023-07-30T00:18:23;100299.94;;;17.06;98.63
8653;BME280;4364;52.426;9.424;2023-07-30T00:20:49;100300.97;;;16.93;99.50
8653;BME280;4364;52.426;9.424;2023-07-30T00:23:16;100303.72;;;16.93;99.90
8653;BME280;4364;52.426;9.424;2023-07-30T00:25:43;100306.75;;;17.00;98.83
8653;BME280;4364;52.426;9.424;2023-07-30T00:28:09;100305.47;;;16.97;99.23
8653;BME280;4364;52.426;9.424;2023-07-30T00:30:36;100310.66;;;16.90;99.89
8653;BME280;4364;52.426;9.424;2023-07-30T00:33:03;100310.50;;;16.87;99.79
8653;BME280;4364;52.426;9.424;2023-07-30T00:35:29;100313.09;;;16.83;100.00
8653;BME280;4364;52.426;9.424;2023-07-30T00:37:56;100310.66;;;16.81;100.00
8653;BME280;4364;52.426;9.424;2023-07-30T00:40:22;100308.09;;;16.76;100.00
8653;BME280;4364;52.426;9.424;2023-07-30T00:42:49;100311.31;;;16.78;100.00
8653;BME280;4364;52.426;9.424;2023-07-30T00:45:15;100315.88;;;16.74;100.00
8653;BME280;4364;52.426;9.424;2023-07-30T00:47:43;100319.25;;;16.71;100.00
8653;BME280;4364;52.426;9.424;2023-07-30T00:50:10;100321.34;;;16.74;100.00
8653;BME280;4364;52.426;9.424;2023-07-30T00:52:39;100318.47;;;16.71;100.00
8653;BME280;4364;52.426;9.424;2023-07-30T00:55:07;100326.38;;;16.63;100.00
8653;BME280;4364;52.426;9.424;2023-07-30T00:57:36;100319.59;;;16.52;100.00
8653;BME280;4364;52.426;9.424;2023-07-30T01:00:05;100327.03;;;16.60;100.00
8653;BME280;4364;52.426;9.424;2023-07-30T01:02:36;100322.50;;;16.64;100.00
8653;BME280;4364;52.426;9.424;2023-07-30T01:05:03;100324.41;;;16.73;100.00
8653;BME280;4364;52.426;9.424;2023-07-30T01:07:31;100327.59;;;16.83;100.00
8653;BME280;4364;52.426;9.424;2023-07-30T01:09:59;100333.44;;;16.91;100.00
8653;BME280;4364;52.426;9.424;2023-07-30T01:12:27;100334.91;;;16.88;100.00
8653;BME280;4364;52.426;9.424;2023-07-30T01:14:55;100342.66;;;16.86;100.00
8653;BME280;4364;52.426;9.424;2023-07-30T01:17:22;100339.91;;;16.86;100.00
8653;BME280;4364;52.426;9.424;2023-07-30T01:19:49;100343.47;;;16.87;100.00
8653;BME280;4364;52.426;9.424;2023-07-30T01:22:16;100354.28;;;16.83;100.00
8653;BME280;4364;52.426;9.424;2023-07-30T01:24:42;100351.06;;;16.81;100.00
8653;BME280;4364;52.426;9.424;2023-07-30T01:27:14;100348.81;;;16.74;100.00
8653;BME280;4364;52.426;9.424;2023-07-30T01:29:48;100347.81;;;16.79;100.00
8653;BME280;4364;52.426;9.424;2023-07-30T01:32:20;100350.44;;;16.66;100.00
8653;BME280;4364;52.426;9.424;2023-07-30T01:34:52;100350.56;;;16.70;100.00
8653;BME280;4364;52.426;9.424;2023-07-30T01:37:20;100353.81;;;16.63;100.00
8653;BME280;4364;52.426;9.424;2023-07-30T01:39:48;100364.31;;;16.61;100.00
8653;BME280;4364;52.426;9.424;2023-07-30T01:42:15;100349.00;;;16.52;100.00
8653;BME280;4364;52.426;9.424;2023-07-30T01:44:42;100351.13;;;16.46;100.00
8653;BME280;4364;52.426;9.424;2023-07-30T01:47:09;100349.50;;;16.45;100.00
8653;BME280;4364;52.426;9.424;2023-07-30T01:49:35;100356.78;;;16.41;100.00
8653;BME280;4364;52.426;9.424;2023-07-30T01:52:02;100360.00;;;16.34;100.00
8653;BME280;4364;52.426;9.424;2023-07-30T01:54:28;100359.00;;;16.39;100.00
8653;BME280;4364;52.426;9.424;2023-07-30T01:56:55;100364.19;;;16.32;100.00
8653;BME280;4364;52.426;9.424;2023-07-30T01:59:21;100365.31;;;16.22;100.00
8653;BME280;4364;52.426;9.424;2023-07-30T02:01:48;100376.78;;;16.15;100.00
8653;BME280;4364;52.426;9.424;2023-07-30T02:04:15;100377.09;;;16.05;100.00
8653;BME280;4364;52.426;9.424;2023-07-30T02:06:42;100374.19;;;16.01;100.00
8653;BME280;4364;52.426;9.424;2023-07-30T02:09:09;100382.59;;;16.05;100.00
8653;BME280;4364;52.426;9.424;2023-07-30T02:11:35;100374.53;;;16.00;100.00
8653;BME280;4364;52.426;9.424;2023-07-30T02:14:03;100379.69;;;16.01;100.00
8653;BME280;4364;52.426;9.424;2023-07-30T02:16:30;100372.25;;;15.93;100.00
8653;BME280;4364;52.426;9.424;2023-07-30T02:18:56;100378.53;;;15.93;100.00
8653;BME280;4364;52.426;9.424;2023-07-30T02:21:23;100369.34;;;15.98;100.00
8653;BME280;4364;52.426;9.424;2023-07-30T02:23:49;100368.56;;;15.98;100.00
8653;BME280;4364;52.426;9.424;2023-07-30T02:26:16;100372.56;;;15.91;100.00
8653;BME280;4364;52.426;9.424;2023-07-30T02:28:43;100372.88;;;15.90;100.00
8653;BME280;4364;52.426;9.424;2023-07-30T02:31:11;100371.78;;;15.82;100.00
8653;BME280;4364;52.426;9.424;2023-07-30T02:33:37;100379.00;;;15.87;100.00
8653;BME280;4364;52.426;9.424;2023-07-30T02:36:04;100376.56;;;15.77;100.00
8653;BME280;4364;52.426;9.424;2023-07-30T02:38:31;100371.78;;;15.82;100.00
8653;BME280;4364;52.426;9.424;2023-07-30T02:40:57;100375.78;;;15.76;100.00
8653;BME280;4364;52.426;9.424;2023-07-30T02:43:24;100376.06;;;15.74;100.00
8653;BME280;4364;52.426;9.424;2023-07-30T02:45:50;100375.91;;;15.71;100.00
8653;BME280;4364;52.426;9.424;2023-07-30T02:48:17;100375.72;;;15.59;100.00
8653;BME280;4364;52.426;9.424;2023-07-30T02:50:44;100373.31;;;15.57;100.00
8653;BME280;4364;52.426;9.424;2023-07-30T02:53:11;100377.63;;;15.58;100.00
8653;BME280;4364;52.426;9.424;2023-07-30T02:55:37;100376.53;;;15.59;100.00
8653;BME280;4364;52.426;9.424;2023-07-30T02:58:04;100377.94;;;15.56;100.00
8653;BME280;4364;52.426;9.424;2023-07-30T03:00:30;100376.03;;;15.57;100.00
8653;BME280;4364;52.426;9.424;2023-07-30T03:02:57;100384.22;;;15.48;100.00
8653;BME280;4364;52.426;9.424;2023-07-30T03:05:24;100388.59;;;15.58;100.00
8653;BME280;4364;52.426;9.424;2023-07-30T03:07:50;100385.34;;;15.47;100.00
8653;BME280;4364;52.426;9.424;2023-07-30T03:10:17;100387.09;;;15.43;100.00
8653;BME280;4364;52.426;9.424;2023-07-30T03:12:43;100394.84;;;15.41;100.00
8653;BME280;4364;52.426;9.424;2023-07-30T03:15:10;100392.09;;;15.41;100.00
8653;BME280;4364;52.426;9.424;2023-07-30T03:17:36;100390.16;;;15.42;100.00
8653;BME280;4364;52.426;9.424;2023-07-30T03:20:04;100391.75;;;15.34;100.00
8653;BME280;4364;52.426;9.424;2023-07-30T03:22:31;100393.88;;;15.37;100.00
8653;BME280;4364;52.426;9.424;2023-07-30T03:24:57;100390.13;;;15.33;100.00
8653;BME280;4364;52.426;9.424;2023-07-30T03:27:24;100396.75;;;15.32;100.00
8653;BME280;4364;52.426;9.424;2023-07-30T03:29:50;100395.75;;;15.28;100.00
8653;BME280;4364;52.426;9.424;2023-07-30T03:32:17;100396.06;;;15.26;100.00
8653;BME280;4364;52.426;9.424;2023-07-30T03:34:43;100389.31;;;15.24;100.00
8653;BME280;4364;52.426;9.424;2023-07-30T03:37:10;100389.78;;;15.26;100.00
8653;BME280;4364;52.426;9.424;2023-07-30T03:39:36;100394.31;;;15.30;100.00
8653;BME280;4364;52.426;9.424;2023-07-30T03:42:04;100394.13;;;15.27;100.00
8653;BME280;4364;52.426;9.424;2023-07-30T03:44:31;100399.59;;;15.27;100.00
8653;BME280;4364;52.426;9.424;2023-07-30T03:46:57;100396.16;;;15.12;100.00
8653;BME280;4364;52.426;9.424;2023-07-30T03:49:24;100400.50;;;15.13;100.00
8653;BME280;4364;52.426;9.424;2023-07-30T03:51:50;100398.09;;;15.12;100.00
8653;BME280;4364;52.426;9.424;2023-07-30T03:54:17;100406.31;;;15.12;100.00
8653;BME280;4364;52.426;9.424;2023-07-30T03:56:43;100403.69;;;15.07;100.00
8653;BME280;4364;52.426;9.424;2023-07-30T03:59:10;100399.66;;;15.04;100.00
8653;BME280;4364;52.426;9.424;2023-07-30T04:01:36;100399.97;;;15.03;100.00
8653;BME280;4364;52.426;9.424;2023-07-30T04:04:04;100402.44;;;15.13;100.00
8653;BME280;4364;52.426;9.424;2023-07-30T04:06:31;100411.47;;;15.13;100.00
8653;BME280;4364;52.426;9.424;2023-07-30T04:08:57;100410.47;;;15.09;100.00
8653;BME280;4364;52.426;9.424;2023-07-30T04:11:24;100409.69;;;15.09;100.00
8653;BME280;4364;52.426;9.424;2023-07-30T04:13:50;100417.59;;;15.10;100.00
8653;BME280;4364;52.426;9.424;2023-07-30T04:16:17;100411.91;;;15.07;100.00
8653;BME280;4364;52.426;9.424;2023-07-30T04:18:44;100417.59;;;15.10;100.00
8653;BME280;4364;52.426;9.424;2023-07-30T04:21:10;100413.84;;;15.06;100.00
8653;BME280;4364;52.426;9.424;2023-07-30T04:23:37;100421.31;;;15.14;100.00
8653;BME280;4364;52.426;9.424;2023-07-30T04:26:03;100421.97;;;15.20;100.00
8653;BME280;4364;52.426;9.424;2023-07-30T04:28:30;100417.81;;;15.23;100.00
8653;BME280;4364;52.426;9.424;2023-07-30T04:30:58;100415.69;;;15.19;100.00
8653;BME280;4364;52.426;9.424;2023-07-30T04:33:24;100421.47;;;15.18;100.00
8653;BME280;4364;52.426;9.424;2023-07-30T04:35:53;100422.50;;;15.31;100.00
8653;BME280;4364;52.426;9.424;2023-07-30T04:38:20;100428.47;;;15.33;100.00
8653;BME280;4364;52.426;9.424;2023-07-30T04:40:47;100423.44;;;15.26;100.00
8653;BME280;4364;52.426;9.424;2023-07-30T04:43:14;100416.38;;;15.25;100.00
8653;BME280;4364;52.426;9.424;2023-07-30T04:45:42;100420.25;;;15.33;100.00
8653;BME280;4364;52.426;9.424;2023-07-30T04:48:09;100419.31;;;15.37;100.00
8653;BME280;4364;52.426;9.424;2023-07-30T04:50:36;100419.84;;;15.48;100.00
8653;BME280;4364;52.426;9.424;2023-07-30T04:53:04;100428.06;;;15.48;100.00
8653;BME280;4364;52.426;9.424;2023-07-30T04:55:31;100417.09;;;15.48;100.00
8653;BME280;4364;52.426;9.424;2023-07-30T04:57:59;100423.22;;;15.45;100.00
8653;BME280;4364;52.426;9.424;2023-07-30T05:00:26;100422.56;;;15.48;100.00
8653;BME280;4364;52.426;9.424;2023-07-30T05:02:52;100420.03;;;15.52;100.00
8653;BME280;4364;52.426;9.424;2023-07-30T05:05:19;100417.94;;;15.57;100.00
8653;BME280;4364;52.426;9.424;2023-07-30T05:07:45;100418.09;;;15.61;100.00
8653;BME280;4364;52.426;9.424;2023-07-30T05:10:12;100418.28;;;15.65;100.00
8653;BME280;4364;52.426;9.424;2023-07-30T05:12:38;100418.91;;;15.62;100.00
8653;BME280;4364;52.426;9.424;2023-07-30T05:15:05;100420.84;;;15.61;100.00
8653;BME280;4364;52.426;9.424;2023-07-30T05:17:32;100417.81;;;15.71;100.00
8653;BME280;4364;52.426;9.424;2023-07-30T05:19:59;100429.03;;;15.92;100.00
8653;BME280;4364;52.426;9.424;2023-07-30T05:22:25;100423.88;;;15.91;100.00
8653;BME280;4364;52.426;9.424;2023-07-30T05:24:52;100424.84;;;15.95;100.00
8653;BME280;4364;52.426;9.424;2023-07-30T05:27:18;100424.69;;;16.00;100.00
8653;BME280;4364;52.426;9.424;2023-07-30T05:29:45;100421.59;;;15.93;100.00
8653;BME280;4364;52.426;9.424;2023-07-30T05:32:14;100426.28;;;15.92;100.00
8653;BME280;4364;52.426;9.424;2023-07-30T05:34:41;100422.59;;;15.97;100.00
8653;BME280;4364;52.426;9.424;2023-07-30T05:37:07;100427.41;;;16.00;100.00
8653;BME280;4364;52.426;9.424;2023-07-30T05:39:34;100428.91;;;16.15;98.32
8653;BME280;4364;52.426;9.424;2023-07-30T05:42:01;100420.03;;;16.18;98.40
8653;BME280;4364;52.426;9.424;2023-07-30T05:44:27;100420.66;;;16.15;97.79
8653;BME280;4364;52.426;9.424;2023-07-30T05:46:54;100423.44;;;16.24;95.66
8653;BME280;4364;52.426;9.424;2023-07-30T05:49:20;100427.78;;;16.34;96.19
8653;BME280;4364;52.426;9.424;2023-07-30T05:51:47;100425.84;;;16.34;96.02
8653;BME280;4364;52.426;9.424;2023-07-30T05:54:13;100422.94;;;16.48;93.79
8653;BME280;4364;52.426;9.424;2023-07-30T05:56:40;100429.56;;;16.47;91.08
8653;BME280;4364;52.426;9.424;2023-07-30T05:59:06;100437.16;;;16.50;90.14
8653;BME280;4364;52.426;9.424;2023-07-30T06:01:33;100426.97;;;16.42;90.16
8653;BME280;4364;52.426;9.424;2023-07-30T06:04:00;100420.19;;;16.57;88.16
8653;BME280;4364;52.426;9.424;2023-07-30T06:06:28;100417.13;;;16.58;88.90
8653;BME280;4364;52.426;9.424;2023-07-30T06:08:55;100419.38;;;16.65;87.00
8653;BME280;4364;52.426;9.424;2023-07-30T06:11:22;100434.06;;;16.60;86.57
8653;BME280;4364;52.426;9.424;2023-07-30T06:13:49;100426.34;;;16.62;85.99
8653;BME280;4364;52.426;9.424;2023-07-30T06:16:17;100423.28;;;16.64;84.88
8653;BME280;4364;52.426;9.424;2023-07-30T06:18:44;100424.53;;;16.66;85.21
8653;BME280;4364;52.426;9.424;2023-07-30T06:21:11;100424.22;;;16.68;84.97
8653;BME280;4364;52.426;9.424;2023-07-30T06:23:38;100422.59;;;16.76;85.06
8653;BME280;4364;52.426;9.424;2023-07-30T06:26:04;100423.72;;;16.92;82.38
8653;BME280;4364;52.426;9.424;2023-07-30T06:28:31;100422.78;;;16.88;82.23
8653;BME280;4364;52.426;9.424;2023-07-30T06:31:01;100422.91;;;16.92;81.48
8653;BME280;4364;52.426;9.424;2023-07-30T06:33:28;100427.59;;;17.00;81.21
8653;BME280;4364;52.426;9.424;2023-07-30T06:35:58;100425.13;;;17.16;81.63
8653;BME280;4364;52.426;9.424;2023-07-30T06:38:25;100431.88;;;17.27;80.90
8653;BME280;4364;52.426;9.424;2023-07-30T06:40:52;100433.31;;;17.33;79.45
8653;BME280;4364;52.426;9.424;2023-07-30T06:43:18;100425.69;;;17.39;78.67
8653;BME280;4364;52.426;9.424;2023-07-30T06:45:45;100435.63;;;17.61;78.35
8653;BME280;4364;52.426;9.424;2023-07-30T06:48:11;100437.72;;;17.64;76.68
8653;BME280;4364;52.426;9.424;2023-07-30T06:50:38;100436.38;;;17.70;74.56
8653;BME280;4364;52.426;9.424;2023-07-30T06:53:05;100440.69;;;17.80;74.50
8653;BME280;4364;52.426;9.424;2023-07-30T06:55:32;100442.84;;;17.74;74.59
8653;BME280;4364;52.426;9.424;2023-07-30T06:57:59;100449.13;;;17.75;73.96
8653;BME280;4364;52.426;9.424;2023-07-30T07:00:25;100447.38;;;17.70;73.62
8653;BME280;4364;52.426;9.424;2023-07-30T07:02:52;100461.25;;;17.74;73.74
8653;BME280;4364;52.426;9.424;2023-07-30T07:05:18;100461.25;;;17.83;74.18
8653;BME280;4364;52.426;9.424;2023-07-30T07:07:46;100465.09;;;17.90;73.48
8653;BME280;4364;52.426;9.424;2023-07-30T07:10:12;100463.31;;;17.86;73.86
8653;BME280;4364;52.426;9.424;2023-07-30T07:12:39;100464.44;;;17.93;73.48
8653;BME280;4364;52.426;9.424;2023-07-30T07:15:06;100469.63;;;17.86;73.98
8653;BME280;4364;52.426;9.424;2023-07-30T07:17:33;100467.69;;;17.87;74.39
8653;BME280;4364;52.426;9.424;2023-07-30T07:19:59;100459.53;;;17.69;75.01
8653;BME280;4364;52.426;9.424;2023-07-30T07:22:26;100474.97;;;17.91;74.11
8653;BME280;4364;52.426;9.424;2023-07-30T07:24:53;100472.41;;;18.16;74.08
8653;BME280;4364;52.426;9.424;2023-07-30T07:27:19;100474.00;;;18.17;74.03
8653;BME280;4364;52.426;9.424;2023-07-30T07:29:46;100486.44;;;18.23;73.17
8653;BME280;4364;52.426;9.424;2023-07-30T07:32:13;100482.03;;;18.01;73.99
8653;BME280;4364;52.426;9.424;2023-07-30T07:34:39;100482.56;;;17.86;74.58
8653;BME280;4364;52.426;9.424;2023-07-30T07:37:06;100484.22;;;17.87;74.88
8653;BME280;4364;52.426;9.424;2023-07-30T07:39:33;100478.03;;;17.90;74.91
8653;BME280;4364;52.426;9.424;2023-07-30T07:42:00;100484.47;;;18.24;74.57
8653;BME280;4364;52.426;9.424;2023-07-30T07:44:27;100481.63;;;18.41;73.29
8653;BME280;4364;52.426;9.424;2023-07-30T07:46:53;100479.66;;;18.63;72.63
8653;BME280;4364;52.426;9.424;2023-07-30T07:49:20;100488.72;;;18.63;72.83
8653;BME280;4364;52.426;9.424;2023-07-30T07:51:46;100477.84;;;18.67;72.53
8653;BME280;4364;52.426;9.424;2023-07-30T07:54:13;100480.63;;;18.88;71.00
8653;BME280;4364;52.426;9.424;2023-07-30T07:56:39;100468.59;;;19.05;70.45
8653;BME280;4364;52.426;9.424;2023-07-30T07:59:06;100481.38;;;19.10;69.67
8653;BME280;4364;52.426;9.424;2023-07-30T08:01:32;100478.19;;;19.32;69.26
8653;BME280;4364;52.426;9.424;2023-07-30T08:03:59;100478.69;;;19.47;68.37
8653;BME280;4364;52.426;9.424;2023-07-30T08:06:26;100479.16;;;19.36;68.19
8653;BME280;4364;52.426;9.424;2023-07-30T08:08:53;100477.31;;;19.40;67.99
8653;BME280;4364;52.426;9.424;2023-07-30T08:11:19;100469.81;;;19.16;68.97
8653;BME280;4364;52.426;9.424;2023-07-30T08:13:45;100480.81;;;19.16;69.22
8653;BME280;4364;52.426;9.424;2023-07-30T08:16:12;100481.50;;;19.13;69.04
8653;BME280;4364;52.426;9.424;2023-07-30T08:18:39;100478.53;;;19.18;69.10
8653;BME280;4364;52.426;9.424;2023-07-30T08:21:05;100471.59;;;19.12;69.06
8653;BME280;4364;52.426;9.424;2023-07-30T08:23:32;100470.50;;;19.25;68.70
8653;BME280;4364;52.426;9.424;2023-07-30T08:25:58;100470.50;;;19.25;68.90
8653;BME280;4364;52.426;9.424;2023-07-30T08:28:26;100468.69;;;19.54;68.65
8653;BME280;4364;52.426;9.424;2023-07-30T08:30:52;100478.09;;;19.29;68.61
8653;BME280;4364;52.426;9.424;2023-07-30T08:33:18;100475.13;;;19.00;69.30
8653;BME280;4364;52.426;9.424;2023-07-30T08:35:45;100466.34;;;19.19;68.46
8653;BME280;4364;52.426;9.424;2023-07-30T08:38:11;100464.97;;;19.25;68.08
8653;BME280;4364;52.426;9.424;2023-07-30T08:40:38;100471.78;;;19.28;68.78
8653;BME280;4364;52.426;9.424;2023-07-30T08:43:05;100466.03;;;19.46;69.13
8653;BME280;4364;52.426;9.424;2023-07-30T08:45:32;100482.25;;;19.47;69.07
8653;BME280;4364;52.426;9.424;2023-07-30T08:47:58;100472.13;;;19.27;68.48
8653;BME280;4364;52.426;9.424;2023-07-30T08:50:26;100471.72;;;19.16;68.94
8653;BME280;4364;52.426;9.424;2023-07-30T08:52:54;100475.53;;;19.23;69.32
8653;BME280;4364;52.426;9.424;2023-07-30T08:55:21;100463.16;;;19.30;68.76
8653;BME280;4364;52.426;9.424;2023-07-30T09:02:03;100482.66;;;19.83;67.47
8653;BME280;4364;52.426;9.424;2023-07-30T09:04:34;100485.38;;;19.70;67.43
8653;BME280;4364;52.426;9.424;2023-07-30T09:07:02;100498.63;;;19.77;67.95
8653;BME280;4364;52.426;9.424;2023-07-30T09:09:28;100491.81;;;19.50;67.76
8653;BME280;4364;52.426;9.424;2023-07-30T09:11:55;100495.59;;;19.45;67.50
8653;BME280;4364;52.426;9.424;2023-07-30T09:14:21;100499.16;;;19.58;68.43
8653;BME280;4364;52.426;9.424;2023-07-30T09:16:48;100498.44;;;19.36;67.92
8653;BME280;4364;52.426;9.424;2023-07-30T09:19:17;100497.34;;;19.16;69.18
8653;BME280;4364;52.426;9.424;2023-07-30T09:21:44;100509.28;;;19.20;68.82
8653;BME280;4364;52.426;9.424;2023-07-30T09:24:10;100503.56;;;19.25;68.31
8653;BME280;4364;52.426;9.424;2023-07-30T09:26:45;100514.38;;;19.31;68.85
8653;BME280;4364;52.426;9.424;2023-07-30T09:29:12;100502.78;;;19.37;69.01
8653;BME280;4364;52.426;9.424;2023-07-30T09:31:50;100512.34;;;19.52;68.67
8653;BME280;4364;52.426;9.424;2023-07-30T09:34:24;100507.13;;;19.26;69.53
8653;BME280;4364;52.426;9.424;2023-07-30T09:36:52;100515.47;;;19.17;69.91
8653;BME280;4364;52.426;9.424;2023-07-30T09:39:22;100509.59;;;19.06;70.28
8653;BME280;4364;52.426;9.424;2023-07-30T09:41:51;100512.84;;;19.21;69.84
8653;BME280;4364;52.426;9.424;2023-07-30T09:44:19;100525.94;;;19.12;69.87
8653;BME280;4364;52.426;9.424;2023-07-30T09:46:48;100526.25;;;19.10;70.57
8653;BME280;4364;52.426;9.424;2023-07-30T09:49:16;100524.44;;;19.14;70.20
8653;BME280;4364;52.426;9.424;2023-07-30T09:51:43;100529.75;;;18.77;71.24
8653;BME280;4364;52.426;9.424;2023-07-30T09:54:12;100528.38;;;18.71;71.59
8653;BME280;4364;52.426;9.424;2023-07-30T09:56:40;100535.13;;;18.52;72.53
8653;BME280;4364;52.426;9.424;2023-07-30T09:59:08;100536.59;;;18.50;73.38
8653;BME280;4364;52.426;9.424;2023-07-30T10:01:38;100533.53;;;18.51;73.10
8653;BME280;4364;52.426;9.424;2023-07-30T10:04:33;100547.47;;;18.46;73.20
8653;BME280;4364;52.426;9.424;2023-07-30T10:07:08;100555.75;;;18.46;73.50
8653;BME280;4364;52.426;9.424;2023-07-30T10:09:39;100556.69;;;18.50;73.86
8653;BME280;4364;52.426;9.424;2023-07-30T10:12:12;100550.50;;;18.54;73.55
8653;BME280;4364;52.426;9.424;2023-07-30T10:14:40;100572.97;;;18.35;73.68
8653;BME280;4364;52.426;9.424;2023-07-30T10:17:10;100573.59;;;18.40;73.70
8653;BME280;4364;52.426;9.424;2023-07-30T10:19:37;100578.22;;;18.19;74.21
8653;BME280;4364;52.426;9.424;2023-07-30T10:24:40;100587.50;;;18.05;75.97
8653;BME280;4364;52.426;9.424;2023-07-30T10:27:08;100585.72;;;18.09;75.62
8653;BME280;4364;52.426;9.424;2023-07-30T10:29:35;100592.66;;;18.15;75.30
8653;BME280;4364;52.426;9.424;2023-07-30T10:32:02;100589.13;;;18.06;75.35
8653;BME280;4364;52.426;9.424;2023-07-30T10:34:46;100586.75;;;17.96;76.35
8653;BME280;4364;52.426;9.424;2023-07-30T10:37:24;100589.97;;;17.98;76.53
8653;BME280;4364;52.426;9.424;2023-07-30T10:39:50;100585.91;;;18.04;77.25
8653;BME280;4364;52.426;9.424;2023-07-30T10:42:17;100581.56;;;18.33;75.49
8653;BME280;4364;52.426;9.424;2023-07-30T10:44:45;100592.09;;;18.31;75.46
8653;BME280;4364;52.426;9.424;2023-07-30T10:47:11;100579.25;;;18.05;76.40
8653;BME280;4364;52.426;9.424;2023-07-30T10:50:01;100573.94;;;18.00;77.26
8653;BME280;4364;52.426;9.424;2023-07-30T10:52:28;100572.44;;;18.11;77.55
8653;BME280;4364;52.426;9.424;2023-07-30T10:55:01;100567.75;;;18.12;76.87
8653;BME280;4364;52.426;9.424;2023-07-30T10:57:31;100565.97;;;18.16;76.96
8653;BME280;4364;52.426;9.424;2023-07-30T11:00:00;100565.94;;;18.46;76.18
8653;BME280;4364;52.426;9.424;2023-07-30T11:02:28;100563.66;;;18.48;76.53
8653;BME280;4364;52.426;9.424;2023-07-30T11:04:55;100562.22;;;18.72;74.72
8653;BME280;4364;52.426;9.424;2023-07-30T11:07:21;100565.22;;;18.79;75.39
8653;BME280;4364;52.426;9.424;2023-07-30T11:09:58;100559.88;;;19.03;74.07
8653;BME280;4364;52.426;9.424;2023-07-30T11:12:26;100558.25;;;19.02;73.83
8653;BME280;4364;52.426;9.424;2023-07-30T11:15:00;100564.31;;;18.96;73.26
8653;BME280;4364;52.426;9.424;2023-07-30T11:17:27;100564.84;;;19.10;73.84
8653;BME280;4364;52.426;9.424;2023-07-30T11:19:53;100569.84;;;19.29;71.27
8653;BME280;4364;52.426;9.424;2023-07-30T11:22:32;100567.69;;;19.01;72.39
8653;BME280;4364;52.426;9.424;2023-07-30T11:24:58;100554.44;;;18.95;72.14
8653;BME280;4364;52.426;9.424;2023-07-30T11:27:27;100564.00;;;19.31;71.69
8653;BME280;4364;52.426;9.424;2023-07-30T11:29:57;100553.25;;;19.38;69.54
8653;BME280;4364;52.426;9.424;2023-07-30T11:36:36;100543.22;;;19.33;69.31
8653;BME280;4364;52.426;9.424;2023-07-30T11:39:04;100533.69;;;20.01;67.88
8653;BME280;4364;52.426;9.424;2023-07-30T11:41:31;100536.97;;;20.56;66.15
8653;BME280;4364;52.426;9.424;2023-07-30T11:43:58;100520.88;;;20.46;66.35
8653;BME280;4364;52.426;9.424;2023-07-30T11:46:26;100532.81;;;20.62;65.39
8653;BME280;4364;52.426;9.424;2023-07-30T11:48:53;100539.88;;;21.00;63.78
8653;BME280;4364;52.426;9.424;2023-07-30T11:51:36;100544.72;;;21.03;62.08
8653;BME280;4364;52.426;9.424;2023-07-30T11:54:03;100544.00;;;20.66;62.91
8653;BME280;4364;52.426;9.424;2023-07-30T11:56:33;100545.72;;;20.58;63.50
8653;BME280;4364;52.426;9.424;2023-07-30T11:59:06;100532.81;;;20.75;62.63
8653;BME280;4364;52.426;9.424;2023-07-30T12:01:35;100525.44;;;21.07;62.47
8653;BME280;4364;52.426;9.424;2023-07-30T12:04:05;100538.50;;;20.94;61.62
8653;BME280;4364;52.426;9.424;2023-07-30T12:06:46;100537.56;;;21.46;60.95
8653;BME280;4364;52.426;9.424;2023-07-30T12:09:15;100532.88;;;21.63;59.37
8653;BME280;4364;52.426;9.424;2023-07-30T12:14:25;100531.44;;;22.01;58.27
8653;BME280;4364;52.426;9.424;2023-07-30T12:16:57;100530.38;;;21.90;56.09
8653;BME280;4364;52.426;9.424;2023-07-30T12:19:23;100535.19;;;21.61;55.24
8653;BME280;4364;52.426;9.424;2023-07-30T12:21:50;100521.63;;;21.56;56.18
8653;BME280;4364;52.426;9.424;2023-07-30T12:24:17;100530.56;;;21.81;55.99
8653;BME280;4364;52.426;9.424;2023-07-30T12:26:43;100530.91;;;21.48;55.23
8653;BME280;4364;52.426;9.424;2023-07-30T12:29:10;100519.84;;;21.19;57.03
8653;BME280;4364;52.426;9.424;2023-07-30T12:31:36;100521.47;;;21.36;57.65
8653;BME280;4364;52.426;9.424;2023-07-30T12:34:03;100513.56;;;21.98;56.49
8653;BME280;4364;52.426;9.424;2023-07-30T12:36:30;100502.22;;;22.19;53.98
8653;BME280;4364;52.426;9.424;2023-07-30T12:38:56;100504.41;;;21.94;55.66
8653;BME280;4364;52.426;9.424;2023-07-30T12:41:23;100504.53;;;22.17;54.16
8653;BME280;4364;52.426;9.424;2023-07-30T12:43:53;100506.81;;;22.47;54.05
8653;BME280;4364;52.426;9.424;2023-07-30T12:46:20;100492.16;;;22.66;53.62
8653;BME280;4364;52.426;9.424;2023-07-30T12:48:46;100505.44;;;22.76;51.80
8653;BME280;4364;52.426;9.424;2023-07-30T12:51:13;100505.88;;;22.24;52.16
8653;BME280;4364;52.426;9.424;2023-07-30T12:53:39;100513.16;;;21.80;53.74
8653;BME280;4364;52.426;9.424;2023-07-30T12:56:06;100506.00;;;21.95;53.64
8653;BME280;4364;52.426;9.424;2023-07-30T12:58:33;100503.91;;;22.08;52.25
8653;BME280;4364;52.426;9.424;2023-07-30T13:00:59;100506.09;;;21.99;53.96
8653;BME280;4364;52.426;9.424;2023-07-30T13:03:26;100494.84;;;21.76;54.33
8653;BME280;4364;52.426;9.424;2023-07-30T13:05:52;100505.75;;;21.53;54.94
8653;BME280;4364;52.426;9.424;2023-07-30T13:08:20;100501.09;;;21.89;55.08
8653;BME280;4364;52.426;9.424;2023-07-30T13:10:46;100496.81;;;22.43;52.73
8653;BME280;4364;52.426;9.424;2023-07-30T13:13:13;100499.50;;;22.58;51.62
8653;BME280;4364;52.426;9.424;2023-07-30T13:15:39;100488.66;;;22.50;48.84
8653;BME280;4364;52.426;9.424;2023-07-30T13:18:06;100486.91;;;22.61;49.94
8653;BME280;4364;52.426;9.424;2023-07-30T13:20:33;100494.47;;;22.45;48.53
8653;BME280;4364;52.426;9.424;2023-07-30T13:22:59;100485.50;;;22.32;49.40